Time;durP1;ratioP1;P1;durP2;ratioP2;P2;SDS_P1;SDS_P2;PMS_P1;PMS_P2;Temp;Humidity;BMP_temperature;BMP_pressure;BME280_temperature;BME280_humidity;BME280_pressure;Samples;Min_cycle;Max_cycle;Signal;HPM_P1;HPM_P2
2022/05/08 00:01:41;;;;;;;23.52;12.15;;;;;;;17.78;100.00;98430.19;4983867;28;20468;-55
2022/05/08 00:04:06;;;;;;;24.02;11.73;;;;;;;17.50;100.00;98437.19;4984720;28;20030;-56
2022/05/08 00:06:31;;;;;;;28.38;12.05;;;;;;;17.24;100.00;98436.16;4982785;28;20039;-56
2022/05/08 00:08:58;;;;;;;24.65;11.95;;;;;;;17.46;100.00;98430.41;4984506;28;20030;-55
2022/05/08 00:11:23;;;;;;;22.70;11.98;;;;;;;17.75;100.00;98436.47;4983959;28;20030;-55
2022/05/08 00:13:49;;;;;;;22.75;10.30;;;;;;;18.10;100.00;98428.13;4984850;28;20088;-55
2022/05/08 00:16:14;;;;;;;22.67;11.10;;;;;;;18.35;100.00;98430.03;4983877;28;20469;-57
2022/05/08 00:18:40;;;;;;;26.40;11.68;;;;;;;18.16;100.00;98425.09;4984266;28;20052;-57
2022/05/08 00:21:06;;;;;;;24.70;11.55;;;;;;;17.58;100.00;98428.81;4983442;28;20583;-57
2022/05/08 00:23:32;;;;;;;20.55;10.38;;;;;;;18.47;100.00;98423.06;4984586;28;20030;-55
2022/05/08 00:25:58;;;;;;;20.38;10.20;;;;;;;17.85;100.00;98416.53;4983800;28;20115;-57
2022/05/08 00:28:23;;;;;;;23.33;11.68;;;;;;;17.83;100.00;98421.03;4984174;28;20052;-56
2022/05/08 00:30:49;;;;;;;20.38;10.50;;;;;;;18.27;100.00;98419.97;4983110;28;20590;-56
2022/05/08 00:33:14;;;;;;;21.52;10.77;;;;;;;17.75;100.00;98422.44;4983982;28;20034;-56
2022/05/08 00:35:39;;;;;;;23.98;11.43;;;;;;;18.05;100.00;98417.88;4983560;28;20121;-57
2022/05/08 00:38:05;;;;;;;27.52;12.40;;;;;;;17.63;100.00;98422.28;4983971;28;20053;-56
2022/05/08 00:40:35;;;;;;;25.15;11.75;;;;;;;17.47;100.00;98418.91;4981340;28;20042;-56
2022/05/08 00:43:28;;;;;;;24.05;11.45;;;;;;;17.66;100.00;98421.25;4981648;28;20033;-56
2022/05/08 00:45:55;;;;;;;20.15;11.55;;;;;;;17.34;100.00;98422.31;4983301;28;20113;-54
2022/05/08 00:48:20;;;;;;;23.85;11.63;;;;;;;17.68;100.00;98408.78;4983921;28;20030;-55
2022/05/08 00:50:46;;;;;;;22.83;11.20;;;;;;;17.49;100.00;98412.59;4983742;28;20133;-55
2022/05/08 00:53:11;;;;;;;21.48;10.27;;;;;;;18.00;100.00;98408.56;4984717;28;20027;-55
2022/05/08 00:55:37;;;;;;;25.80;11.80;;;;;;;17.54;100.00;98418.44;4983492;28;20126;-56
2022/05/08 00:58:03;;;;;;;24.75;11.68;;;;;;;17.50;100.00;98416.94;4984288;28;20109;-56
2022/05/08 01:00:28;;;;;;;21.92;11.30;;;;;;;17.38;100.00;98422.13;4983182;28;20042;-55
2022/05/08 01:02:57;;;;;;;19.02;10.13;;;;;;;17.54;100.00;98418.44;4984316;28;20415;-56
2022/05/08 01:05:23;;;;;;;18.45;9.93;;;;;;;17.42;100.00;98416.56;4983535;28;20453;-55
2022/05/08 01:07:48;;;;;;;20.75;11.52;;;;;;;17.06;100.00;98423.16;4983671;28;20664;-55
2022/05/08 01:10:14;;;;;;;22.35;12.18;;;;;;;17.06;100.00;98433.72;4983330;28;20030;-56
2022/05/08 01:12:44;;;;;;;21.23;10.98;;;;;;;17.02;100.00;98421.66;4984355;28;20033;-56
2022/05/08 01:15:18;;;;;;;20.88;9.98;;;;;;;17.36;100.00;98427.50;4983730;28;20504;-57
2022/05/08 01:17:43;;;;;;;21.95;11.00;;;;;;;16.98;100.00;98420.13;4984023;28;20036;-56
2022/05/08 01:20:09;;;;;;;26.13;11.25;;;;;;;16.63;100.00;98423.06;4983572;28;20034;-57
2022/05/08 01:22:34;;;;;;;20.65;10.50;;;;;;;16.84;100.00;98415.72;4983665;28;20511;-56
2022/05/08 01:25:00;;;;;;;24.88;12.27;;;;;;;16.88;100.00;98413.75;4983693;28;20534;-56
2022/05/08 01:27:26;;;;;;;22.08;10.93;;;;;;;16.97;100.00;98413.19;4983264;28;20077;-56
2022/05/08 01:29:51;;;;;;;23.40;11.35;;;;;;;16.80;100.00;98422.09;4983953;28;20049;-57
2022/05/08 01:32:16;;;;;;;20.13;11.07;;;;;;;16.70;100.00;98424.41;4983651;28;20043;-56
2022/05/08 01:34:42;;;;;;;24.63;11.15;;;;;;;17.04;100.00;98422.41;4984127;28;20109;-55
2022/05/08 01:37:07;;;;;;;24.20;11.52;;;;;;;16.88;100.00;98424.28;4983408;28;20038;-56
2022/05/08 01:39:32;;;;;;;26.48;11.55;;;;;;;16.97;100.00;98423.72;4982113;28;20038;-56
2022/05/08 01:41:58;;;;;;;23.23;11.52;;;;;;;16.72;100.00;98425.16;4982912;28;20080;-55
2022/05/08 01:44:24;;;;;;;21.15;10.27;;;;;;;16.56;100.00;98413.84;4984024;28;20069;-55
2022/05/08 01:48:21;;;;;;;24.35;11.40;;;;;;;16.18;100.00;98419.53;4983265;28;20066;-57
2022/05/08 01:49:35;;;;;;;20.17;10.75;;;;;;;16.84;100.00;98414.88;4983771;28;20096;-55
2022/05/08 01:52:00;;;;;;;22.25;11.57;;;;;;;16.22;100.00;98420.22;4982884;28;20494;-56
2022/05/08 01:54:25;;;;;;;22.27;11.60;;;;;;;16.21;100.00;98418.50;4985197;28;20092;-55
2022/05/08 01:56:51;;;;;;;28.17;12.07;;;;;;;15.78;100.00;98427.03;4986333;28;20795;-56
2022/05/08 01:59:16;;;;;;;23.77;11.27;;;;;;;15.79;100.00;98423.50;4987352;28;20034;-56
2022/05/08 02:01:43;;;;;;;24.88;11.98;;;;;;;15.85;100.00;98420.50;4986593;28;20453;-55
2022/05/08 02:04:15;;;;;;;22.08;11.80;;;;;;;15.74;100.00;98426.38;4986962;28;20544;-58
2022/05/08 02:06:41;;;;;;;23.67;12.03;;;;;;;16.33;100.00;98423.91;4986473;28;20038;-55
2022/05/08 02:09:06;;;;;;;30.27;12.52;;;;;;;15.92;100.00;98424.50;4986938;28;20331;-56
2022/05/08 02:11:31;;;;;;;22.30;11.68;;;;;;;16.09;100.00;98426.16;4986291;28;20460;-56
2022/05/08 02:13:58;;;;;;;24.85;12.27;;;;;;;15.58;100.00;98420.22;4986670;28;20412;-55
2022/05/08 02:16:24;;;;;;;26.42;12.23;;;;;;;15.58;100.00;98421.06;4986058;28;20154;-56
2022/05/08 02:18:49;;;;;;;22.17;12.45;;;;;;;15.63;100.00;98425.25;4986981;28;20062;-55
2022/05/08 02:21:15;;;;;;;25.95;12.95;;;;;;;15.81;100.00;98424.25;4985721;28;20042;-55
2022/05/08 02:23:40;;;;;;;24.17;12.23;;;;;;;15.26;100.00;98414.09;4986965;28;20030;-54
2022/05/08 02:26:05;;;;;;;27.85;12.73;;;;;;;15.09;100.00;98423.72;4984856;28;20213;-55
2022/05/08 02:28:31;;;;;;;23.92;12.40;;;;;;;15.76;100.00;98424.50;4986866;28;20031;-56
2022/05/08 02:30:57;;;;;;;26.88;13.10;;;;;;;15.38;100.00;98418.66;4985965;28;20061;-55
2022/05/08 02:33:22;;;;;;;27.83;11.88;;;;;;;16.20;100.00;98420.31;4986436;28;20121;-55
2022/05/08 02:35:47;;;;;;;22.05;9.98;;;;;;;16.66;100.00;98412.34;4986075;28;20073;-56
2022/05/08 02:38:13;;;;;;;23.52;10.90;;;;;;;16.16;100.00;98419.63;4986567;28;20464;-55
2022/05/08 02:40:38;;;;;;;22.80;10.98;;;;;;;16.27;100.00;98416.38;4986183;28;20034;-55
2022/05/08 02:43:03;;;;;;;27.67;12.10;;;;;;;15.71;100.00;98409.88;4986519;28;20099;-55
2022/05/08 02:45:29;;;;;;;23.13;11.27;;;;;;;16.08;100.00;98410.47;4986108;28;20045;-54
2022/05/08 02:47:54;;;;;;;22.25;11.23;;;;;;;15.96;100.00;98404.97;4986517;28;20031;-55
2022/05/08 02:50:20;;;;;;;27.75;13.27;;;;;;;16.07;100.00;98411.41;4985764;28;20034;-54
2022/05/08 02:52:46;;;;;;;21.15;11.18;;;;;;;15.92;100.00;98408.72;4986212;28;20022;-56
2022/05/08 03:00:43;;;;;;;20.85;10.93;;;;;;;15.28;100.00;98412.22;4985809;28;20769;-55
2022/05/08 03:03:09;;;;;;;24.52;11.10;;;;;;;12.20;100.00;98426.59;4985769;28;20030;-56
2022/05/08 03:05:36;;;;;;;22.65;11.88;;;;;;;11.53;100.00;98436.16;4984758;28;20053;-56
2022/05/08 03:08:05;;;;;;;17.60;9.80;;;;;;;12.00;100.00;98443.94;4986249;28;20118;-56
2022/05/08 03:11:25;;;;;;;21.58;10.15;;;;;;;12.21;100.00;98438.78;4985246;28;20038;-56
2022/05/08 03:13:15;;;;;;;21.80;11.02;;;;;;;11.73;100.00;98438.88;4984940;28;20034;-56
2022/05/08 03:15:41;;;;;;;24.27;11.02;;;;;;;11.38;100.00;98440.22;4984842;28;20092;-56
2022/05/08 03:18:06;;;;;;;22.50;11.80;;;;;;;11.24;100.00;98443.31;4985239;28;20042;-54
2022/05/08 03:20:32;;;;;;;18.40;9.57;;;;;;;11.64;100.00;98444.44;4984857;28;20026;-56
2022/05/08 03:22:59;;;;;;;22.42;11.20;;;;;;;11.60;100.00;98444.59;4985556;28;20546;-55
2022/05/08 03:25:24;;;;;;;20.45;11.07;;;;;;;11.36;100.00;98448.09;4985281;28;20052;-55
2022/05/08 03:27:49;;;;;;;25.67;12.15;;;;;;;11.10;100.00;98456.00;4985341;28;20436;-55
2022/05/08 03:30:15;;;;;;;23.83;11.35;;;;;;;11.53;100.00;98451.84;4984715;28;20026;-55
2022/05/08 03:32:40;;;;;;;22.92;10.40;;;;;;;11.47;100.00;98452.06;4985167;28;20014;-57
2022/05/08 03:35:06;;;;;;;21.30;11.25;;;;;;;11.54;100.00;98457.00;4985315;28;20028;-57
2022/05/08 03:37:33;;;;;;;21.77;11.13;;;;;;;11.16;100.00;98448.81;4984698;28;20034;-55
2022/05/08 03:39:59;;;;;;;23.80;10.60;;;;;;;11.56;100.00;98456.94;4985135;28;20083;-56
2022/05/08 03:42:24;;;;;;;24.63;11.20;;;;;;;11.35;100.00;98455.97;4983990;28;20038;-56
2022/05/08 03:44:53;;;;;;;22.45;10.82;;;;;;;11.51;100.00;98459.72;4985190;28;20420;-54
2022/05/08 03:47:19;;;;;;;20.45;10.15;;;;;;;11.70;100.00;98459.03;4984124;28;20038;-56
2022/05/08 03:49:44;;;;;;;19.05;9.48;;;;;;;11.61;100.00;98455.00;4983993;28;20029;-56
2022/05/08 03:52:09;;;;;;;20.55;10.80;;;;;;;11.58;100.00;98455.13;4984465;28;20595;-56
2022/05/08 03:54:35;;;;;;;26.25;10.77;;;;;;;11.36;100.00;98455.94;4984568;28;20072;-55
2022/05/08 03:57:00;;;;;;;23.58;11.70;;;;;;;11.05;100.00;98460.56;4984270;28;20042;-56
2022/05/08 03:59:25;;;;;;;22.20;11.82;;;;;;;11.12;100.00;98462.91;4984715;28;20441;-56
2022/05/08 04:01:54;;;;;;;18.88;10.27;;;;;;;11.30;100.00;98464.00;4984778;28;20519;-56
2022/05/08 04:04:20;;;;;;;21.60;10.82;;;;;;;11.81;100.00;98469.06;4984392;28;20031;-56
2022/05/08 04:06:45;;;;;;;19.25;10.88;;;;;;;11.42;100.00;98464.44;4984212;28;20069;-55
2022/05/08 04:09:10;;;;;;;18.63;9.25;;;;;;;11.97;100.00;98467.59;4984316;28;20045;-56
2022/05/08 04:11:36;;;;;;;18.30;9.75;;;;;;;12.34;100.00;98476.59;4983962;28;20042;-55
2022/05/08 04:14:01;;;;;;;18.88;10.40;;;;;;;11.66;100.00;98473.97;4984787;28;20061;-55
2022/05/08 04:16:26;;;;;;;31.08;13.32;;;;;;;11.28;100.00;98468.41;4983849;28;20069;-55
2022/05/08 04:18:52;;;;;;;21.88;11.25;;;;;;;11.57;100.00;98471.72;4983378;28;20061;-56
2022/05/08 04:21:18;;;;;;;22.92;11.68;;;;;;;11.10;100.00;98475.16;4983876;28;20070;-56
2022/05/08 04:26:30;;;;;;;24.15;11.63;;;;;;;11.53;100.00;98478.81;4983890;28;20070;-55
2022/05/08 04:28:56;;;;;;;17.48;9.20;;;;;;;12.21;100.00;98486.69;4984156;28;20036;-55
2022/05/08 04:31:21;;;;;;;20.23;10.57;;;;;;;11.51;100.00;98488.47;4983942;28;20042;-56
2022/05/08 04:33:46;;;;;;;18.52;9.95;;;;;;;11.98;100.00;98484.13;4984211;28;20034;-56
2022/05/08 04:36:12;;;;;;;18.33;10.25;;;;;;;11.91;100.00;98486.13;4983592;28;20039;-55
2022/05/08 04:38:37;;;;;;;21.65;11.27;;;;;;;11.94;100.00;98493.84;4983991;28;20515;-56
2022/05/08 04:41:02;;;;;;;18.33;9.38;;;;;;;12.52;100.00;98486.31;4984276;28;20404;-55
2022/05/08 04:43:28;;;;;;;19.80;10.48;;;;;;;12.22;100.00;98493.66;4984876;28;20105;-55
2022/05/08 04:45:53;;;;;;;16.77;10.48;;;;;;;12.48;100.00;98489.09;4983987;28;20046;-55
2022/05/08 04:48:18;;;;;;;15.75;8.75;;;;;;;13.05;100.00;98490.19;4984269;28;20062;-54
2022/05/08 04:50:43;;;;;;;15.75;8.65;;;;;;;12.95;100.00;98494.13;4983756;28;20093;-54
2022/05/08 04:53:09;;;;;;;19.10;10.50;;;;;;;12.95;100.00;98488.88;4984169;28;20080;-56
2022/05/08 04:55:34;;;;;;;14.75;9.15;;;;;;;13.96;100.00;98487.91;4984059;28;20071;-56
2022/05/08 04:57:59;;;;;;;17.83;9.73;;;;;;;13.97;100.00;98495.72;4983835;28;20123;-56
2022/05/08 05:00:26;;;;;;;14.68;8.52;;;;;;;14.71;100.00;98497.44;4983683;28;20416;-54
2022/05/08 05:02:52;;;;;;;16.88;9.45;;;;;;;13.98;100.00;98500.03;4984004;28;20495;-55
2022/05/08 05:05:17;;;;;;;17.75;9.43;;;;;;;13.96;100.00;98496.63;4983583;28;20053;-55
2022/05/08 05:07:42;;;;;;;14.25;8.95;;;;;;;14.31;100.00;98494.09;4984489;28;20080;-57
2022/05/08 05:10:10;;;;;;;18.30;9.32;;;;;;;14.62;100.00;98492.66;4983126;28;20075;-54
2022/05/08 05:12:35;;;;;;;16.67;8.88;;;;;;;15.89;100.00;98490.44;4984008;28;20030;-56
2022/05/08 05:15:01;;;;;;;17.23;9.57;;;;;;;15.78;100.00;98495.44;4983740;28;20018;-55
2022/05/08 05:17:27;;;;;;;12.38;8.02;;;;;;;16.61;100.00;98492.56;4981663;28;20046;-54
2022/05/08 05:19:52;;;;;;;15.73;8.50;;;;;;;16.75;100.00;98487.34;4983504;28;20527;-54
2022/05/08 05:22:23;;;;;;;16.00;8.90;;;;;;;16.67;100.00;98490.44;4983026;28;20043;-55
2022/05/08 05:24:49;;;;;;;12.75;8.20;;;;;;;16.79;100.00;98496.78;4983460;28;20037;-55
2022/05/08 05:27:14;;;;;;;15.05;8.40;;;;;;;17.38;100.00;98499.44;4983199;28;20042;-54
2022/05/08 05:29:39;;;;;;;15.40;8.57;;;;;;;17.33;100.00;98496.22;4985851;28;20026;-54
2022/05/08 05:32:05;;;;;;;12.88;7.55;;;;;;;18.76;100.00;98492.44;4987213;28;20041;-56
2022/05/08 05:34:30;;;;;;;11.70;7.65;;;;;;;17.17;100.00;98492.81;4987609;28;20019;-55
2022/05/08 05:36:56;;;;;;;13.23;7.18;;;;;;;18.20;100.00;98491.75;4987235;28;20038;-55
2022/05/08 05:39:24;;;;;;;12.50;7.57;;;;;;;19.95;100.00;98493.13;4988076;28;20030;-55
2022/05/08 05:41:49;;;;;;;12.82;7.68;;;;;;;20.60;100.00;98489.31;4987420;28;20038;-55
2022/05/08 05:44:14;;;;;;;12.38;7.57;;;;;;;22.26;81.10;98485.41;4987367;28;20157;-56
2022/05/08 05:49:27;;;;;;;10.35;6.80;;;;;;;24.71;63.23;98483.84;4987126;28;20530;-56
2022/05/08 05:51:53;;;;;;;11.18;6.80;;;;;;;24.48;59.62;98482.41;4987181;28;20065;-56
2022/05/08 05:54:21;;;;;;;10.35;6.85;;;;;;;22.32;65.57;98484.91;4987514;28;20057;-56
2022/05/08 05:56:47;;;;;;;8.25;6.10;;;;;;;24.30;60.70;98480.44;4986911;28;20030;-55
2022/05/08 05:59:13;;;;;;;11.23;6.22;;;;;;;24.78;57.22;98490.31;4987917;28;20037;-56
2022/05/08 06:01:38;;;;;;;13.50;6.68;;;;;;;23.69;60.21;98486.66;4986866;28;20048;-55
2022/05/08 06:04:03;;;;;;;10.77;6.30;;;;;;;23.89;59.75;98492.94;4987209;28;20030;-56
2022/05/08 06:06:29;;;;;;;8.52;6.15;;;;;;;23.99;58.31;98491.16;4986699;28;20483;-57
2022/05/08 06:08:54;;;;;;;9.02;6.30;;;;;;;25.41;53.92;98494.31;4987188;28;20396;-57
2022/05/08 06:11:19;;;;;;;8.90;6.20;;;;;;;25.73;51.59;98493.06;4992525;28;20621;-55
2022/05/08 06:13:45;;;;;;;8.20;5.95;;;;;;;26.30;51.57;98500.94;4986949;28;20115;-55
2022/05/08 06:16:10;;;;;;;12.15;5.80;;;;;;;26.77;47.82;98490.06;4986423;28;20038;-55
2022/05/08 06:18:35;;;;;;;8.05;5.55;;;;;;;27.83;47.87;98492.63;4986502;28;20052;-55
2022/05/08 06:21:01;;;;;;;9.50;5.50;;;;;;;27.71;45.73;98482.34;5000716;28;20042;-57
2022/05/08 06:23:26;;;;;;;8.07;5.30;;;;;;;26.77;46.68;98491.91;4987090;28;20137;-56
2022/05/08 06:25:52;;;;;;;8.20;5.50;;;;;;;28.19;43.96;98491.59;4986091;28;20042;-57
2022/05/08 06:28:19;;;;;;;7.40;5.47;;;;;;;27.63;44.25;98488.50;4985657;28;20022;-56
2022/05/08 06:30:48;;;;;;;8.07;5.15;;;;;;;29.64;41.28;98491.97;4985827;28;20649;-56
2022/05/08 06:33:14;;;;;;;6.20;5.00;;;;;;;31.15;38.86;98491.63;4985738;28;20527;-57
2022/05/08 06:35:40;;;;;;;7.85;4.90;;;;;;;30.81;39.45;98489.38;4986480;28;20057;-58
2022/05/08 06:38:11;;;;;;;8.32;4.57;;;;;;;29.81;35.98;98492.78;4986318;28;20088;-58
2022/05/08 06:40:37;;;;;;;7.72;4.30;;;;;;;31.51;36.08;98485.56;4984435;28;20026;-58
2022/05/08 06:43:03;;;;;;;10.73;4.72;;;;;;;29.08;38.37;98491.88;4986205;28;20500;-57
2022/05/08 06:45:29;;;;;;;7.85;4.75;;;;;;;29.87;36.76;98492.06;4985600;28;20046;-57
2022/05/08 06:47:54;;;;;;;7.45;4.50;;;;;;;30.44;36.19;98491.81;4985639;28;20034;-57
2022/05/08 06:50:20;;;;;;;7.72;3.97;;;;;;;30.85;35.99;98491.50;4985305;28;20581;-58
2022/05/08 06:52:45;;;;;;;6.28;4.07;;;;;;;29.74;36.12;98489.94;4986056;28;20037;-57
2022/05/08 06:55:11;;;;;;;8.50;4.30;;;;;;;29.83;35.52;98491.59;4985494;28;20109;-57
2022/05/08 06:57:36;;;;;;;10.75;3.95;;;;;;;31.24;33.97;98492.38;4986267;28;20077;-59
2022/05/08 07:02:48;;;;;;;6.18;4.10;;;;;;;30.34;34.47;98500.09;4986132;28;20076;-57
2022/05/08 07:05:13;;;;;;;7.68;3.75;;;;;;;31.99;32.64;98494.09;4985240;28;20530;-58
2022/05/08 07:07:38;;;;;;;6.60;3.70;;;;;;;32.22;32.62;98490.44;4986305;28;20460;-58
2022/05/08 07:10:04;;;;;;;6.55;3.80;;;;;;;32.38;32.63;98498.31;4985193;28;20026;-57
2022/05/08 07:12:30;;;;;;;6.78;3.55;;;;;;;32.82;32.53;98489.22;4985629;28;20061;-57
2022/05/08 07:14:56;;;;;;;5.43;3.53;;;;;;;33.41;31.21;98496.16;4985528;28;20030;-57
2022/05/08 07:17:23;;;;;;;7.47;3.80;;;;;;;32.64;31.88;98494.25;4984943;28;20496;-57
2022/05/08 07:19:49;;;;;;;6.25;3.60;;;;;;;34.21;29.76;98497.66;4985639;28;20040;-56
2022/05/08 07:22:17;;;;;;;5.65;3.45;;;;;;;33.43;31.06;98501.38;4984961;28;20046;-57
2022/05/08 07:24:43;;;;;;;5.10;3.55;;;;;;;30.98;33.84;98500.88;4985668;28;20081;-57
2022/05/08 07:27:11;;;;;;;4.85;3.60;;;;;;;32.49;32.71;98501.53;4985037;28;20034;-58
2022/05/08 07:29:45;;;;;;;7.55;3.65;;;;;;;31.34;33.57;98506.44;4985358;28;20436;-56
2022/05/08 07:32:11;;;;;;;5.75;3.55;;;;;;;32.17;33.34;98506.38;4984947;28;20085;-56
2022/05/08 07:37:21;;;;;;;5.25;3.67;;;;;;;30.38;34.76;98505.97;4985161;28;20053;-57
2022/05/08 07:39:47;;;;;;;7.95;3.50;;;;;;;28.86;37.12;98512.19;4985451;28;20022;-57
2022/05/08 07:42:12;;;;;;;7.15;4.10;;;;;;;30.12;35.98;98507.09;4984885;28;20041;-58
2022/05/08 07:44:37;;;;;;;6.70;3.80;;;;;;;29.27;36.54;98518.41;4985203;28;20037;-58
2022/05/08 07:47:03;;;;;;;6.03;3.63;;;;;;;28.93;37.44;98516.75;4984555;28;20062;-58
2022/05/08 07:49:29;;;;;;;8.10;4.05;;;;;;;28.84;37.63;98515.06;4985093;28;20042;-57
2022/05/08 07:51:54;;;;;;;6.40;3.78;;;;;;;30.56;34.43;98525.38;4984176;28;20088;-58
2022/05/08 07:54:20;;;;;;;6.97;3.67;;;;;;;30.13;34.82;98514.16;4985216;28;20030;-59
2022/05/08 07:56:45;;;;;;;7.20;3.85;;;;;;;30.24;34.84;98520.19;4984144;28;20034;-57
2022/05/08 07:59:11;;;;;;;8.18;3.50;;;;;;;31.43;32.93;98517.94;4985068;28;20069;-58
2022/05/08 08:01:36;;;;;;;7.00;3.60;;;;;;;29.30;35.49;98523.47;4984066;28;20038;-57
2022/05/08 08:04:02;;;;;;;7.73;3.50;;;;;;;28.54;35.02;98522.72;4985534;28;20030;-58
2022/05/08 08:06:28;;;;;;;8.93;3.88;;;;;;;29.10;35.19;98528.31;4984074;28;20293;-58
2022/05/08 08:08:54;;;;;;;5.97;3.70;;;;;;;30.22;32.73;98516.78;4984868;28;20053;-57
2022/05/08 08:11:20;;;;;;;6.18;3.50;;;;;;;30.88;32.22;98523.47;4984214;28;20042;-57
2022/05/08 08:13:46;;;;;;;5.65;3.50;;;;;;;30.67;32.39;98532.19;4984391;28;20022;-56
2022/05/08 08:16:12;;;;;;;5.93;3.45;;;;;;;28.67;34.65;98532.13;4983975;28;20221;-57
2022/05/08 08:18:42;;;;;;;11.13;3.80;;;;;;;29.51;34.40;98525.59;4983654;28;20513;-57
2022/05/08 08:21:09;;;;;;;7.28;3.70;;;;;;;29.92;34.26;98530.91;4983675;28;20034;-57
2022/05/08 08:23:35;;;;;;;9.57;3.75;;;;;;;30.84;32.97;98532.94;4984713;28;20030;-57
2022/05/08 08:26:00;;;;;;;6.22;3.80;;;;;;;31.51;31.45;98528.69;4983445;28;20046;-59
2022/05/08 08:28:26;;;;;;;6.13;3.80;;;;;;;30.88;33.41;98531.56;4984148;28;20789;-58
2022/05/08 08:30:51;;;;;;;7.10;3.97;;;;;;;31.82;31.33;98527.69;4983404;28;20038;-57
2022/05/08 08:33:16;;;;;;;6.45;3.60;;;;;;;32.59;31.46;98531.78;4983968;28;20111;-58
2022/05/08 08:35:42;;;;;;;7.05;3.70;;;;;;;33.12;30.09;98535.06;4983642;28;20062;-58
2022/05/08 08:38:07;;;;;;;6.57;3.50;;;;;;;31.41;31.27;98528.09;4983878;28;20344;-57
2022/05/08 08:40:42;;;;;;;8.02;3.60;;;;;;;30.41;32.65;98527.16;4983305;28;20092;-57
2022/05/08 08:43:11;;;;;;;6.65;3.45;;;;;;;31.64;32.62;98539.69;4984217;28;20030;-58
2022/05/08 08:48:30;;;;;;;10.00;3.90;;;;;;;29.69;33.27;98533.44;4983947;28;20113;-58
2022/05/08 08:50:57;;;;;;;7.65;3.72;;;;;;;31.36;32.14;98525.97;4983202;28;20129;-58
2022/05/08 08:53:23;;;;;;;8.02;4.10;;;;;;;32.00;32.49;98532.69;4998483;28;20576;-58
2022/05/08 08:55:49;;;;;;;8.40;3.70;;;;;;;30.96;32.42;98529.84;4983013;28;20034;-56
2022/05/08 08:58:19;;;;;;;7.47;3.80;;;;;;;31.10;33.24;98537.13;4983636;28;20089;-58
2022/05/08 09:00:51;;;;;;;7.05;3.47;;;;;;;32.07;30.69;98539.03;4983210;28;20729;-58
2022/05/08 09:03:29;;;;;;;7.75;3.60;;;;;;;33.40;28.11;98539.63;4983609;28;20065;-58
2022/05/08 09:05:56;;;;;;;6.63;3.33;;;;;;;33.18;29.63;98539.66;4987376;28;20084;-57
2022/05/08 09:08:30;;;;;;;6.88;3.42;;;;;;;33.47;28.70;98529.69;4987503;28;20488;-57
2022/05/08 09:10:58;;;;;;;6.93;3.30;;;;;;;32.68;28.46;98530.66;4986906;28;20504;-58
2022/05/08 09:13:27;;;;;;;4.95;3.13;;;;;;;31.91;31.04;98529.28;4987670;28;20644;-58
2022/05/08 09:16:07;;;;;;;9.27;3.47;;;;;;;31.32;30.39;98532.72;4987262;28;20663;-58
2022/05/08 09:18:46;;;;;;;8.55;3.50;;;;;;;31.98;30.14;98534.72;4987343;28;20105;-57
2022/05/08 09:24:11;;;;;;;5.97;3.30;;;;;;;31.03;30.43;98528.13;4988123;28;20046;-57
2022/05/08 09:26:36;;;;;;;7.40;3.67;;;;;;;30.11;31.82;98537.72;4987026;28;20050;-56
2022/05/08 09:29:03;;;;;;;4.85;3.00;;;;;;;30.49;31.62;98537.88;4987735;28;20407;-56
2022/05/08 09:31:38;;;;;;;6.57;3.40;;;;;;;30.96;29.54;98527.16;4986857;28;20042;-58
2022/05/08 09:34:03;;;;;;;10.07;3.78;;;;;;;30.91;30.59;98527.69;4987508;28;20022;-58
2022/05/08 09:36:29;;;;;;;6.95;3.70;;;;;;;32.13;29.00;98532.91;4986726;28;20042;-57
2022/05/08 09:38:59;;;;;;;9.70;3.45;;;;;;;29.74;31.61;98536.50;4987507;28;20030;-57
2022/05/08 09:41:26;;;;;;;8.40;2.97;;;;;;;30.18;30.08;98533.31;4986570;28;20436;-57
2022/05/08 09:43:54;;;;;;;7.20;3.15;;;;;;;30.92;29.44;98527.50;4987389;28;20030;-57
2022/05/08 09:46:20;;;;;;;8.73;3.03;;;;;;;31.80;28.69;98532.41;4986687;28;20105;-57
2022/05/08 09:48:46;;;;;;;6.25;3.28;;;;;;;30.40;29.35;98530.84;4987172;28;20034;-57
2022/05/08 09:51:12;;;;;;;5.93;3.30;;;;;;;28.20;31.52;98526.31;4985856;28;20147;-57
2022/05/08 09:53:40;;;;;;;5.57;3.28;;;;;;;31.66;29.32;98517.91;4987410;28;20038;-58
2022/05/08 09:56:07;;;;;;;5.28;3.20;;;;;;;33.76;26.88;98527.81;4986200;28;20109;-56
2022/05/08 09:58:33;;;;;;;4.82;2.67;;;;;;;32.57;25.96;98514.91;4986557;28;20053;-58
2022/05/08 10:01:01;;;;;;;7.13;3.05;;;;;;;33.77;25.73;98524.09;4986105;28;20042;-57
2022/05/08 10:03:28;;;;;;;5.07;2.67;;;;;;;33.38;25.08;98514.63;4987098;28;20026;-58
2022/05/08 10:05:55;;;;;;;6.20;2.72;;;;;;;33.59;26.52;98516.44;4986103;28;20046;-57
2022/05/08 10:08:23;;;;;;;5.60;2.83;;;;;;;31.22;27.58;98513.28;5001407;28;20455;-58
2022/05/08 10:14:01;;;;;;;4.30;2.97;;;;;;;32.67;26.31;98507.38;4984981;28;20065;-56
2022/05/08 10:16:41;;;;;;;5.05;3.20;;;;;;;33.44;25.85;98503.03;4985201;28;20039;-56
2022/05/08 10:19:27;;;;;;;4.15;2.85;;;;;;;32.61;28.29;98498.19;4986527;28;20022;-57
2022/05/08 10:21:53;;;;;;;4.30;2.70;;;;;;;32.14;26.13;98506.75;4985895;28;20508;-57
2022/05/08 10:24:29;;;;;;;4.30;2.80;;;;;;;31.72;27.07;98505.56;4986964;28;20582;-56
2022/05/08 10:27:17;;;;;;;4.47;2.80;;;;;;;32.88;27.12;98502.97;4986219;28;20273;-57
2022/05/08 10:29:54;;;;;;;5.45;3.10;;;;;;;32.07;26.20;98485.06;4986274;28;20037;-61
2022/05/08 10:32:32;;;;;;;6.45;2.75;;;;;;;32.18;26.47;98486.44;4985419;28;20046;-57
2022/05/08 10:35:16;;;;;;;4.97;2.65;;;;;;;32.18;26.48;98491.84;4986416;28;20022;-57
2022/05/08 10:37:50;;;;;;;4.88;2.60;;;;;;;30.78;26.93;98490.56;4986167;28;20048;-57
2022/05/08 10:40:25;;;;;;;8.48;2.70;;;;;;;30.02;27.68;98490.34;4986094;28;20037;-57
2022/05/08 10:43:18;;;;;;;7.95;2.95;;;;;;;32.04;26.45;98486.31;4986319;28;20054;-57
2022/05/08 10:45:44;;;;;;;5.95;2.92;;;;;;;30.24;27.74;98479.81;4985881;28;20035;-57
2022/05/08 10:48:14;;;;;;;8.35;3.08;;;;;;;30.62;27.29;98478.09;4986316;28;20049;-58
2022/05/08 10:50:56;;;;;;;4.65;2.70;;;;;;;30.38;28.06;98473.69;4985830;28;20180;-59
2022/05/08 10:53:22;;;;;;;6.68;2.70;;;;;;;30.21;27.53;98482.84;4986466;28;20037;-58
2022/05/08 10:55:48;;;;;;;6.85;3.25;;;;;;;31.81;26.42;98475.59;4985706;28;20034;-58
2022/05/08 10:58:14;;;;;;;6.47;2.78;;;;;;;31.60;26.87;98473.66;4985683;28;20042;-57
2022/05/08 11:00:39;;;;;;;4.88;2.90;;;;;;;30.45;27.17;98469.25;4985729;28;20030;-57
2022/05/08 11:03:05;;;;;;;7.30;2.97;;;;;;;30.56;27.57;98465.31;4984425;28;20034;-56
2022/05/08 11:05:36;;;;;;;6.03;3.10;;;;;;;31.37;28.20;98460.22;4985300;28;20054;-56
2022/05/08 11:08:10;;;;;;;5.68;3.05;;;;;;;30.20;28.30;98465.03;4985486;28;20038;-58
2022/05/08 11:10:39;;;;;;;5.82;2.97;;;;;;;28.96;28.64;98462.69;4985166;28;20814;-57
2022/05/08 11:13:09;;;;;;;6.55;3.45;;;;;;;27.41;30.46;98458.59;4985511;28;20117;-57
2022/05/08 11:15:37;;;;;;;6.50;3.20;;;;;;;26.49;32.23;98462.53;4985675;28;20126;-56
2022/05/08 11:18:15;;;;;;;7.25;3.42;;;;;;;27.39;31.01;98468.63;4985827;28;20033;-57
2022/05/08 11:20:44;;;;;;;7.63;3.20;;;;;;;27.29;30.84;98457.16;4985165;28;20038;-58
2022/05/08 11:23:14;;;;;;;7.22;3.20;;;;;;;26.90;31.65;98468.25;4985262;28;20034;-57
2022/05/08 11:25:40;;;;;;;8.32;3.60;;;;;;;28.30;30.79;98460.94;4984875;28;20041;-58
2022/05/08 11:28:13;;;;;;;8.10;3.22;;;;;;;28.50;31.30;98461.47;4984553;28;20876;-57
2022/05/08 11:30:39;;;;;;;8.07;3.28;;;;;;;26.11;33.93;98470.66;4984921;28;20403;-57
2022/05/08 11:36:06;;;;;;;6.97;3.20;;;;;;;24.68;36.17;98468.13;4984854;28;20069;-56
2022/05/08 11:38:38;;;;;;;10.43;3.00;;;;;;;25.43;35.78;98468.28;4984751;28;20022;-57
2022/05/08 11:41:07;;;;;;;7.78;3.30;;;;;;;25.73;35.16;98461.00;4984040;28;20069;-56
2022/05/08 11:43:39;;;;;;;7.55;3.50;;;;;;;25.47;35.79;98469.66;4985091;28;20034;-57
2022/05/08 11:46:05;;;;;;;8.38;3.42;;;;;;;25.05;36.71;98467.38;4983964;28;20074;-57
2022/05/08 11:48:40;;;;;;;7.25;3.30;;;;;;;25.49;35.55;98459.69;4985227;28;20057;-57
2022/05/08 11:51:09;;;;;;;9.15;4.30;;;;;;;25.43;36.30;98459.44;4984102;28;20038;-58